sensor_id;sensor_type;location;lat;lon;timestamp;pressure;altitude;pressure_sealevel;temperature;humidity
62462;BME280;48511;38.664;-9.202;2023-02-20T00:02:00;49897.78;;;-146.63;53.20
62462;BME280;48511;38.664;-9.202;2023-02-20T00:04:01;49923.44;;;-146.63;53.27
62462;BME280;48511;38.664;-9.202;2023-02-20T00:06:02;49917.53;;;-146.63;53.49
62462;BME280;48511;38.664;-9.202;2023-02-20T00:08:03;49862.25;;;-146.63;53.39
62462;BME280;48511;38.664;-9.202;2023-02-20T00:10:04;49883.97;;;-146.63;53.33
62462;BME280;48511;38.664;-9.202;2023-02-20T00:12:05;49901.75;;;-146.63;53.06
62462;BME280;48511;38.664;-9.202;2023-02-20T00:14:06;49893.84;;;-146.63;52.76
62462;BME280;48511;38.664;-9.202;2023-02-20T00:16:07;49921.47;;;-146.63;52.69
62462;BME280;48511;38.664;-9.202;2023-02-20T00:18:08;49889.91;;;-146.63;52.91
62462;BME280;48511;38.664;-9.202;2023-02-20T00:20:10;49909.63;;;-146.63;53.01
62462;BME280;48511;38.664;-9.202;2023-02-20T00:22:11;49874.09;;;-146.63;52.80
62462;BME280;48511;38.664;-9.202;2023-02-20T00:24:13;49874.09;;;-146.63;52.77
62462;BME280;48511;38.664;-9.202;2023-02-20T00:26:14;49878.06;;;-146.63;52.62
62462;BME280;48511;38.664;-9.202;2023-02-20T00:28:16;49901.75;;;-146.63;52.50
62462;BME280;48511;38.664;-9.202;2023-02-20T00:30:19;49882.00;;;-146.63;52.30
62462;BME280;48511;38.664;-9.202;2023-02-20T00:32:20;49905.69;;;-146.63;52.23
62462;BME280;48511;38.664;-9.202;2023-02-20T00:34:23;49874.09;;;-146.63;52.31
62462;BME280;48511;38.664;-9.202;2023-02-20T00:36:25;49901.75;;;-146.63;52.44
62462;BME280;48511;38.664;-9.202;2023-02-20T00:38:26;49897.78;;;-146.63;52.46
62462;BME280;48511;38.664;-9.202;2023-02-20T00:40:27;49882.00;;;-146.63;52.52
62462;BME280;48511;38.664;-9.202;2023-02-20T00:42:28;49909.63;;;-146.63;52.64
62462;BME280;48511;38.664;-9.202;2023-02-20T00:44:29;49882.00;;;-146.63;52.40
62462;BME280;48511;38.664;-9.202;2023-02-20T00:46:29;49911.59;;;-146.63;52.30
62462;BME280;48511;38.664;-9.202;2023-02-20T00:48:31;49885.94;;;-146.63;52.29
62462;BME280;48511;38.664;-9.202;2023-02-20T00:50:50;49878.06;;;-146.63;51.86
62462;BME280;48511;38.664;-9.202;2023-02-20T00:52:50;49913.59;;;-146.63;52.08
62462;BME280;48511;38.664;-9.202;2023-02-20T00:54:51;49883.97;;;-146.63;52.21
62462;BME280;48511;38.664;-9.202;2023-02-20T00:56:52;49874.09;;;-146.63;52.20
62462;BME280;48511;38.664;-9.202;2023-02-20T00:58:53;49889.91;;;-146.63;52.26
62462;BME280;48511;38.664;-9.202;2023-02-20T01:00:53;49899.75;;;-146.63;52.18
62462;BME280;48511;38.664;-9.202;2023-02-20T01:02:56;49866.22;;;-146.63;52.46
62462;BME280;48511;38.664;-9.202;2023-02-20T01:04:57;49901.75;;;-146.63;52.16
62462;BME280;48511;38.664;-9.202;2023-02-20T01:06:57;49889.91;;;-146.63;52.07
62462;BME280;48511;38.664;-9.202;2023-02-20T01:08:58;49895.81;;;-146.63;52.30
62462;BME280;48511;38.664;-9.202;2023-02-20T01:10:59;49929.38;;;-146.63;51.77
62462;BME280;48511;38.664;-9.202;2023-02-20T01:13:00;49878.06;;;-146.63;51.56
62462;BME280;48511;38.664;-9.202;2023-02-20T01:15:01;49850.44;;;-146.63;51.52
62462;BME280;48511;38.664;-9.202;2023-02-20T01:17:02;49893.84;;;-146.63;51.77
62462;BME280;48511;38.664;-9.202;2023-02-20T01:19:03;49885.94;;;-146.63;51.96
62462;BME280;48511;38.664;-9.202;2023-02-20T01:21:04;49874.09;;;-146.63;51.92
62462;BME280;48511;38.664;-9.202;2023-02-20T01:23:04;49901.75;;;-146.63;52.02
62462;BME280;48511;38.664;-9.202;2023-02-20T01:25:08;49858.31;;;-146.63;52.37
62462;BME280;48511;38.664;-9.202;2023-02-20T01:27:11;49887.91;;;-146.63;52.28
62462;BME280;48511;38.664;-9.202;2023-02-20T01:29:11;49925.41;;;-146.63;52.41
62462;BME280;48511;38.664;-9.202;2023-02-20T01:31:12;49913.59;;;-146.63;52.55
62462;BME280;48511;38.664;-9.202;2023-02-20T01:33:13;49889.91;;;-146.63;52.63
62462;BME280;48511;38.664;-9.202;2023-02-20T01:35:15;49933.31;;;-146.63;52.85
62462;BME280;48511;38.664;-9.202;2023-02-20T01:37:16;49893.84;;;-146.63;52.90
62462;BME280;48511;38.664;-9.202;2023-02-20T01:39:22;49856.34;;;-146.63;53.10
62462;BME280;48511;38.664;-9.202;2023-02-20T01:41:24;49893.84;;;-146.63;53.20
62462;BME280;48511;38.664;-9.202;2023-02-20T01:43:25;49882.00;;;-146.63;53.19
62462;BME280;48511;38.664;-9.202;2023-02-20T01:45:35;49866.22;;;-146.63;53.41
62462;BME280;48511;38.664;-9.202;2023-02-20T01:47:37;49929.38;;;-146.63;53.38
62462;BME280;48511;38.664;-9.202;2023-02-20T01:49:42;49880.03;;;-146.63;53.64
62462;BME280;48511;38.664;-9.202;2023-02-20T01:51:47;49885.94;;;-146.63;53.72
62462;BME280;48511;38.664;-9.202;2023-02-20T01:53:50;49923.44;;;-146.63;53.78
62462;BME280;48511;38.664;-9.202;2023-02-20T01:55:58;49889.91;;;-146.63;54.01
62462;BME280;48511;38.664;-9.202;2023-02-20T01:58:15;49887.91;;;-146.63;54.09
62462;BME280;48511;38.664;-9.202;2023-02-20T02:00:20;49897.78;;;-146.63;54.31
62462;BME280;48511;38.664;-9.202;2023-02-20T02:02:22;49905.69;;;-146.63;54.45
62462;BME280;48511;38.664;-9.202;2023-02-20T02:04:24;49889.91;;;-146.63;54.60
62462;BME280;48511;38.664;-9.202;2023-02-20T02:06:25;49921.47;;;-146.63;55.35
62462;BME280;48511;38.664;-9.202;2023-02-20T02:08:28;49909.63;;;-146.63;58.48
62462;BME280;48511;38.664;-9.202;2023-02-20T02:10:35;49919.50;;;-146.63;58.16
62462;BME280;48511;38.664;-9.202;2023-02-20T02:12:36;49893.84;;;-146.63;58.75
62462;BME280;48511;38.664;-9.202;2023-02-20T02:14:38;49913.59;;;-146.63;59.24
62462;BME280;48511;38.664;-9.202;2023-02-20T02:19:48;49889.91;;;-146.63;59.57
62462;BME280;48511;38.664;-9.202;2023-02-20T02:34:03;49872.13;;;-146.63;54.25
62462;BME280;48511;38.664;-9.202;2023-02-20T02:41:43;49872.13;;;-146.63;53.82
62462;BME280;48511;38.664;-9.202;2023-02-20T02:46:25;49870.16;;;-146.63;54.29
62462;BME280;48511;38.664;-9.202;2023-02-20T02:48:49;49933.31;;;-146.63;54.57
62462;BME280;48511;38.664;-9.202;2023-02-20T02:50:56;49913.59;;;-146.63;54.77
62462;BME280;48511;38.664;-9.202;2023-02-20T02:52:58;49909.63;;;-146.63;55.00
62462;BME280;48511;38.664;-9.202;2023-02-20T02:54:59;49925.41;;;-146.63;55.23
62462;BME280;48511;38.664;-9.202;2023-02-20T02:57:22;49868.19;;;-146.63;55.31
62462;BME280;48511;38.664;-9.202;2023-02-20T02:59:27;49905.69;;;-146.63;55.60
62462;BME280;48511;38.664;-9.202;2023-02-20T03:01:34;49856.34;;;-146.63;55.79
62462;BME280;48511;38.664;-9.202;2023-02-20T03:03:39;49889.91;;;-146.63;55.95
62462;BME280;48511;38.664;-9.202;2023-02-20T03:05:53;49893.84;;;-146.63;56.43
62462;BME280;48511;38.664;-9.202;2023-02-20T03:07:56;49909.63;;;-146.63;58.93
62462;BME280;48511;38.664;-9.202;2023-02-20T03:10:02;49913.59;;;-146.63;61.15
62462;BME280;48511;38.664;-9.202;2023-02-20T03:12:11;49876.09;;;-146.63;61.27
62462;BME280;48511;38.664;-9.202;2023-02-20T03:14:18;49880.03;;;-146.63;61.15
62462;BME280;48511;38.664;-9.202;2023-02-20T03:17:07;49874.09;;;-146.63;61.23
62462;BME280;48511;38.664;-9.202;2023-02-20T03:19:12;49885.94;;;-146.63;61.55
62462;BME280;48511;38.664;-9.202;2023-02-20T03:21:17;49945.16;;;-146.63;61.72
62462;BME280;48511;38.664;-9.202;2023-02-20T03:23:24;49905.69;;;-146.63;63.34
62462;BME280;48511;38.664;-9.202;2023-02-20T03:25:34;49911.59;;;-146.63;64.47
62462;BME280;48511;38.664;-9.202;2023-02-20T03:27:50;49903.72;;;-146.63;65.02
62462;BME280;48511;38.664;-9.202;2023-02-20T03:29:56;49901.75;;;-146.63;64.56
62462;BME280;48511;38.664;-9.202;2023-02-20T03:32:06;49913.59;;;-146.63;64.57
62462;BME280;48511;38.664;-9.202;2023-02-20T03:34:26;49913.59;;;-146.63;64.74
62462;BME280;48511;38.664;-9.202;2023-02-20T03:36:52;49929.38;;;-146.63;64.91
62462;BME280;48511;38.664;-9.202;2023-02-20T03:39:17;49905.69;;;-146.63;64.95
62462;BME280;48511;38.664;-9.202;2023-02-20T03:41:40;49917.53;;;-146.63;65.22
62462;BME280;48511;38.664;-9.202;2023-02-20T03:44:05;49882.00;;;-146.63;65.43
62462;BME280;48511;38.664;-9.202;2023-02-20T03:46:11;49893.84;;;-146.63;65.69
62462;BME280;48511;38.664;-9.202;2023-02-20T03:48:44;49891.88;;;-146.63;65.75
62462;BME280;48511;38.664;-9.202;2023-02-20T03:50:47;49925.41;;;-146.63;65.49
62462;BME280;48511;38.664;-9.202;2023-02-20T03:52:48;49909.63;;;-146.63;65.16
62462;BME280;48511;38.664;-9.202;2023-02-20T03:54:51;49913.59;;;-146.63;64.58
62462;BME280;48511;38.664;-9.202;2023-02-20T03:57:02;49905.69;;;-146.63;63.40
62462;BME280;48511;38.664;-9.202;2023-02-20T03:59:12;49935.28;;;-146.63;63.03
62462;BME280;48511;38.664;-9.202;2023-02-20T04:01:15;49883.97;;;-146.63;62.58
62462;BME280;48511;38.664;-9.202;2023-02-20T04:03:22;49901.75;;;-146.63;61.99
62462;BME280;48511;38.664;-9.202;2023-02-20T04:05:30;49905.69;;;-146.63;61.82
62462;BME280;48511;38.664;-9.202;2023-02-20T04:07:50;49913.59;;;-146.63;61.62
62462;BME280;48511;38.664;-9.202;2023-02-20T04:09:58;49897.78;;;-146.63;60.93
62462;BME280;48511;38.664;-9.202;2023-02-20T04:12:10;49901.75;;;-146.63;60.81
62462;BME280;48511;38.664;-9.202;2023-02-20T04:14:17;49903.72;;;-146.63;60.65
62462;BME280;48511;38.664;-9.202;2023-02-20T04:16:21;49923.44;;;-146.63;60.44
62462;BME280;48511;38.664;-9.202;2023-02-20T04:18:23;49905.69;;;-146.63;59.88
62462;BME280;48511;38.664;-9.202;2023-02-20T04:20:24;49921.47;;;-146.63;59.84
62462;BME280;48511;38.664;-9.202;2023-02-20T04:22:42;49909.63;;;-146.63;59.51
62462;BME280;48511;38.664;-9.202;2023-02-20T04:24:59;49913.59;;;-146.63;59.63
62462;BME280;48511;38.664;-9.202;2023-02-20T04:27:03;49945.16;;;-146.63;59.79
62462;BME280;48511;38.664;-9.202;2023-02-20T04:29:06;49917.53;;;-146.63;60.04
62462;BME280;48511;38.664;-9.202;2023-02-20T04:31:09;49891.88;;;-146.63;60.40
62462;BME280;48511;38.664;-9.202;2023-02-20T04:33:13;49895.81;;;-146.63;60.34
62462;BME280;48511;38.664;-9.202;2023-02-20T04:35:17;49897.78;;;-146.63;60.36
62462;BME280;48511;38.664;-9.202;2023-02-20T04:37:20;49921.47;;;-146.63;60.57
62462;BME280;48511;38.664;-9.202;2023-02-20T04:39:24;49917.53;;;-146.63;60.38
62462;BME280;48511;38.664;-9.202;2023-02-20T04:41:27;49929.38;;;-146.63;60.41
62462;BME280;48511;38.664;-9.202;2023-02-20T04:43:28;49897.78;;;-146.63;60.24
62462;BME280;48511;38.664;-9.202;2023-02-20T04:45:30;49941.22;;;-146.63;59.61
62462;BME280;48511;38.664;-9.202;2023-02-20T04:47:31;49933.31;;;-146.63;59.39
62462;BME280;48511;38.664;-9.202;2023-02-20T04:49:33;49919.50;;;-146.63;59.26
62462;BME280;48511;38.664;-9.202;2023-02-20T04:51:35;49901.75;;;-146.63;59.30
62462;BME280;48511;38.664;-9.202;2023-02-20T04:53:36;49897.78;;;-146.63;59.19
62462;BME280;48511;38.664;-9.202;2023-02-20T04:55:37;49893.84;;;-146.63;59.07
62462;BME280;48511;38.664;-9.202;2023-02-20T04:57:43;49889.91;;;-146.63;58.98
62462;BME280;48511;38.664;-9.202;2023-02-20T04:59:44;49911.59;;;-146.63;59.19
62462;BME280;48511;38.664;-9.202;2023-02-20T05:01:45;49893.84;;;-146.63;59.12
62462;BME280;48511;38.664;-9.202;2023-02-20T05:03:48;49901.75;;;-146.63;59.24
62462;BME280;48511;38.664;-9.202;2023-02-20T05:05:49;49905.69;;;-146.63;59.32
62462;BME280;48511;38.664;-9.202;2023-02-20T05:07:59;49901.75;;;-146.63;59.29
62462;BME280;48511;38.664;-9.202;2023-02-20T05:10:00;49931.34;;;-146.63;59.49
62462;BME280;48511;38.664;-9.202;2023-02-20T05:12:00;49889.91;;;-146.63;59.56
62462;BME280;48511;38.664;-9.202;2023-02-20T05:14:01;49878.06;;;-146.63;59.59
62462;BME280;48511;38.664;-9.202;2023-02-20T05:16:02;49893.84;;;-146.63;59.31
62462;BME280;48511;38.664;-9.202;2023-02-20T05:18:03;49901.75;;;-146.63;59.14
62462;BME280;48511;38.664;-9.202;2023-02-20T05:20:04;49880.03;;;-146.63;58.95
62462;BME280;48511;38.664;-9.202;2023-02-20T05:22:09;49899.75;;;-146.63;59.05
62462;BME280;48511;38.664;-9.202;2023-02-20T05:24:19;49862.25;;;-146.63;58.97
62462;BME280;48511;38.664;-9.202;2023-02-20T05:26:21;49889.91;;;-146.63;58.95
62462;BME280;48511;38.664;-9.202;2023-02-20T05:28:21;49917.53;;;-146.63;59.07
62462;BME280;48511;38.664;-9.202;2023-02-20T05:30:22;49909.63;;;-146.63;59.21
62462;BME280;48511;38.664;-9.202;2023-02-20T05:32:24;49941.22;;;-146.63;59.72
62462;BME280;48511;38.664;-9.202;2023-02-20T05:34:25;49925.41;;;-146.63;60.25
62462;BME280;48511;38.664;-9.202;2023-02-20T05:36:26;49941.22;;;-146.63;60.58
62462;BME280;48511;38.664;-9.202;2023-02-20T05:38:27;49885.94;;;-146.63;61.02
62462;BME280;48511;38.664;-9.202;2023-02-20T05:40:28;49931.34;;;-146.63;61.86
62462;BME280;48511;38.664;-9.202;2023-02-20T05:42:28;49885.94;;;-146.63;62.47
62462;BME280;48511;38.664;-9.202;2023-02-20T05:44:29;49897.78;;;-146.63;63.17
62462;BME280;48511;38.664;-9.202;2023-02-20T05:46:30;49887.91;;;-146.63;63.49
62462;BME280;48511;38.664;-9.202;2023-02-20T05:48:30;49903.72;;;-146.63;63.46
62462;BME280;48511;38.664;-9.202;2023-02-20T05:50:31;49925.41;;;-146.63;63.65
62462;BME280;48511;38.664;-9.202;2023-02-20T05:52:32;49897.78;;;-146.63;63.66
62462;BME280;48511;38.664;-9.202;2023-02-20T05:54:33;49913.59;;;-146.63;63.75
62462;BME280;48511;38.664;-9.202;2023-02-20T05:56:33;49903.72;;;-146.63;63.77
62462;BME280;48511;38.664;-9.202;2023-02-20T05:58:34;49903.72;;;-146.63;63.77
62462;BME280;48511;38.664;-9.202;2023-02-20T06:00:35;49897.78;;;-146.63;64.48
62462;BME280;48511;38.664;-9.202;2023-02-20T06:02:36;49909.63;;;-146.63;64.63
62462;BME280;48511;38.664;-9.202;2023-02-20T06:04:37;49891.88;;;-146.63;64.67
62462;BME280;48511;38.664;-9.202;2023-02-20T06:06:40;49882.00;;;-146.63;64.95
62462;BME280;48511;38.664;-9.202;2023-02-20T06:08:41;49933.31;;;-146.63;65.12
62462;BME280;48511;38.664;-9.202;2023-02-20T06:10:42;49897.78;;;-146.63;65.42
62462;BME280;48511;38.664;-9.202;2023-02-20T06:12:42;49909.63;;;-146.63;65.09
62462;BME280;48511;38.664;-9.202;2023-02-20T06:14:43;49921.47;;;-146.63;64.28
62462;BME280;48511;38.664;-9.202;2023-02-20T06:16:44;49897.78;;;-146.63;63.18
62462;BME280;48511;38.664;-9.202;2023-02-20T06:18:45;49909.63;;;-146.63;62.52
62462;BME280;48511;38.664;-9.202;2023-02-20T06:20:46;49901.75;;;-146.63;62.15
62462;BME280;48511;38.664;-9.202;2023-02-20T06:22:47;49937.25;;;-146.63;61.91
62462;BME280;48511;38.664;-9.202;2023-02-20T06:24:48;49897.78;;;-146.63;61.64
62462;BME280;48511;38.664;-9.202;2023-02-20T06:26:50;49909.63;;;-146.63;61.04
62462;BME280;48511;38.664;-9.202;2023-02-20T06:28:51;49917.53;;;-146.63;60.34
62462;BME280;48511;38.664;-9.202;2023-02-20T06:30:54;49913.59;;;-146.63;59.98
62462;BME280;48511;38.664;-9.202;2023-02-20T06:32:55;49925.41;;;-146.63;60.10
62462;BME280;48511;38.664;-9.202;2023-02-20T06:34:56;49909.63;;;-146.63;60.01
62462;BME280;48511;38.664;-9.202;2023-02-20T06:36:56;49933.31;;;-146.63;60.07
62462;BME280;48511;38.664;-9.202;2023-02-20T06:38:58;49927.41;;;-146.63;59.95
62462;BME280;48511;38.664;-9.202;2023-02-20T06:40:58;49885.94;;;-146.63;60.11
62462;BME280;48511;38.664;-9.202;2023-02-20T06:42:59;49897.78;;;-146.63;60.13
62462;BME280;48511;38.664;-9.202;2023-02-20T06:45:00;49929.38;;;-146.63;60.05
62462;BME280;48511;38.664;-9.202;2023-02-20T06:47:01;49927.41;;;-146.63;60.23
62462;BME280;48511;38.664;-9.202;2023-02-20T06:49:02;49895.81;;;-146.63;60.30
62462;BME280;48511;38.664;-9.202;2023-02-20T06:51:03;49901.75;;;-146.63;60.42
62462;BME280;48511;38.664;-9.202;2023-02-20T06:53:04;49903.72;;;-146.63;60.46
62462;BME280;48511;38.664;-9.202;2023-02-20T06:55:04;49893.84;;;-146.63;60.81
62462;BME280;48511;38.664;-9.202;2023-02-20T06:57:05;49921.47;;;-146.63;60.90
62462;BME280;48511;38.664;-9.202;2023-02-20T06:59:06;49913.59;;;-146.63;61.35
62462;BME280;48511;38.664;-9.202;2023-02-20T07:01:08;49905.69;;;-146.63;61.58
62462;BME280;48511;38.664;-9.202;2023-02-20T07:03:10;49921.47;;;-146.63;62.12
62462;BME280;48511;38.664;-9.202;2023-02-20T07:05:11;49933.31;;;-146.63;62.50
62462;BME280;48511;38.664;-9.202;2023-02-20T07:07:11;49941.22;;;-146.63;62.73
62462;BME280;48511;38.664;-9.202;2023-02-20T07:09:13;49893.84;;;-146.63;62.61
62462;BME280;48511;38.664;-9.202;2023-02-20T07:11:16;49921.47;;;-146.63;62.60
62462;BME280;48511;38.664;-9.202;2023-02-20T07:13:17;49919.50;;;-146.63;62.17
62462;BME280;48511;38.664;-9.202;2023-02-20T07:15:18;49895.81;;;-146.63;62.22
62462;BME280;48511;38.664;-9.202;2023-02-20T07:17:19;49882.00;;;-146.63;62.32
62462;BME280;48511;38.664;-9.202;2023-02-20T07:19:20;49899.75;;;-146.63;62.51
62462;BME280;48511;38.664;-9.202;2023-02-20T07:21:20;49929.38;;;-146.63;62.48
62462;BME280;48511;38.664;-9.202;2023-02-20T07:23:22;49955.03;;;-146.63;62.89
62462;BME280;48511;38.664;-9.202;2023-02-20T07:25:23;49913.59;;;-146.63;62.92
62462;BME280;48511;38.664;-9.202;2023-02-20T07:27:23;49911.59;;;-146.63;63.22
62462;BME280;48511;38.664;-9.202;2023-02-20T07:29:25;49911.59;;;-146.63;63.78
62462;BME280;48511;38.664;-9.202;2023-02-20T07:31:26;49889.91;;;-146.63;63.82
62462;BME280;48511;38.664;-9.202;2023-02-20T07:33:27;49921.47;;;-146.63;63.72
62462;BME280;48511;38.664;-9.202;2023-02-20T07:35:28;49889.91;;;-146.63;63.91
62462;BME280;48511;38.664;-9.202;2023-02-20T07:37:35;49919.50;;;-146.63;64.04
62462;BME280;48511;38.664;-9.202;2023-02-20T07:39:36;49923.44;;;-146.63;64.87
62462;BME280;48511;38.664;-9.202;2023-02-20T07:41:36;49913.59;;;-146.63;65.10
62462;BME280;48511;38.664;-9.202;2023-02-20T07:43:39;49889.91;;;-146.63;65.30
62462;BME280;48511;38.664;-9.202;2023-02-20T07:45:41;49911.59;;;-146.63;66.16
62462;BME280;48511;38.664;-9.202;2023-02-20T07:47:42;49878.06;;;-146.63;66.27
62462;BME280;48511;38.664;-9.202;2023-02-20T07:49:42;49895.81;;;-146.63;66.33
62462;BME280;48511;38.664;-9.202;2023-02-20T07:51:43;49899.75;;;-146.63;66.49
62462;BME280;48511;38.664;-9.202;2023-02-20T07:53:48;49882.00;;;-146.63;66.28
62462;BME280;48511;38.664;-9.202;2023-02-20T07:55:49;49962.91;;;-146.63;66.47
62462;BME280;48511;38.664;-9.202;2023-02-20T07:57:50;49913.59;;;-146.63;66.78
62462;BME280;48511;38.664;-9.202;2023-02-20T07:59:53;49923.44;;;-146.63;67.44
62462;BME280;48511;38.664;-9.202;2023-02-20T08:01:55;49935.28;;;-146.63;67.05
62462;BME280;48511;38.664;-9.202;2023-02-20T08:03:55;49913.59;;;-146.63;66.96
62462;BME280;48511;38.664;-9.202;2023-02-20T08:05:56;49927.41;;;-146.63;66.79
62462;BME280;48511;38.664;-9.202;2023-02-20T08:07:57;49925.41;;;-146.63;66.90
62462;BME280;48511;38.664;-9.202;2023-02-20T08:09:57;49913.59;;;-146.63;66.48
62462;BME280;48511;38.664;-9.202;2023-02-20T08:11:58;49929.38;;;-146.63;66.46
62462;BME280;48511;38.664;-9.202;2023-02-20T08:13:59;49957.00;;;-146.63;66.31
62462;BME280;48511;38.664;-9.202;2023-02-20T08:16:00;49905.69;;;-146.63;66.22
62462;BME280;48511;38.664;-9.202;2023-02-20T08:18:01;49941.22;;;-146.63;66.09
62462;BME280;48511;38.664;-9.202;2023-02-20T08:20:02;49913.59;;;-146.63;66.10
62462;BME280;48511;38.664;-9.202;2023-02-20T08:22:03;49876.09;;;-146.63;65.86
62462;BME280;48511;38.664;-9.202;2023-02-20T08:24:04;49929.38;;;-146.63;65.50
62462;BME280;48511;38.664;-9.202;2023-02-20T08:26:05;49929.38;;;-146.63;64.88
62462;BME280;48511;38.664;-9.202;2023-02-20T08:28:06;49880.03;;;-146.63;64.58
62462;BME280;48511;38.664;-9.202;2023-02-20T08:30:30;49923.44;;;-146.63;64.59
62462;BME280;48511;38.664;-9.202;2023-02-20T08:32:30;49917.53;;;-146.63;64.37
62462;BME280;48511;38.664;-9.202;2023-02-20T08:34:31;49905.69;;;-146.63;64.23
62462;BME280;48511;38.664;-9.202;2023-02-20T08:36:32;49901.75;;;-146.63;63.27
62462;BME280;48511;38.664;-9.202;2023-02-20T08:38:35;49917.53;;;-146.63;63.05
62462;BME280;48511;38.664;-9.202;2023-02-20T08:40:36;49891.88;;;-146.63;62.25
62462;BME280;48511;38.664;-9.202;2023-02-20T08:42:37;49887.91;;;-146.63;62.48
62462;BME280;48511;38.664;-9.202;2023-02-20T08:44:39;49935.28;;;-146.63;62.32
62462;BME280;48511;38.664;-9.202;2023-02-20T08:46:47;49929.38;;;-146.63;62.25
62462;BME280;48511;38.664;-9.202;2023-02-20T08:48:48;49907.66;;;-146.63;61.99
62462;BME280;48511;38.664;-9.202;2023-02-20T08:50:49;49913.59;;;-146.63;61.70
62462;BME280;48511;38.664;-9.202;2023-02-20T08:52:50;49925.41;;;-146.63;61.41
62462;BME280;48511;38.664;-9.202;2023-02-20T08:54:51;49913.59;;;-146.63;60.88
62462;BME280;48511;38.664;-9.202;2023-02-20T08:56:51;49921.47;;;-146.63;60.90
62462;BME280;48511;38.664;-9.202;2023-02-20T08:58:52;49913.59;;;-146.63;60.51
62462;BME280;48511;38.664;-9.202;2023-02-20T09:00:53;49913.59;;;-146.63;59.98
62462;BME280;48511;38.664;-9.202;2023-02-20T09:02:54;49923.44;;;-146.63;59.84
62462;BME280;48511;38.664;-9.202;2023-02-20T09:04:55;49911.59;;;-146.63;59.78
62462;BME280;48511;38.664;-9.202;2023-02-20T09:06:57;49937.25;;;-146.63;59.61
62462;BME280;48511;38.664;-9.202;2023-02-20T09:08:57;49937.25;;;-146.63;59.80
62462;BME280;48511;38.664;-9.202;2023-02-20T09:10:58;49893.84;;;-146.63;59.98
62462;BME280;48511;38.664;-9.202;2023-02-20T09:12:59;49909.63;;;-146.63;60.07
62462;BME280;48511;38.664;-9.202;2023-02-20T09:15:00;49917.53;;;-146.63;60.17
62462;BME280;48511;38.664;-9.202;2023-02-20T09:17:01;49925.41;;;-146.63;60.21
62462;BME280;48511;38.664;-9.202;2023-02-20T09:19:01;49949.09;;;-146.63;60.38
62462;BME280;48511;38.664;-9.202;2023-02-20T09:21:02;49927.41;;;-146.63;60.00
62462;BME280;48511;38.664;-9.202;2023-02-20T09:23:03;49925.41;;;-146.63;59.89
62462;BME280;48511;38.664;-9.202;2023-02-20T09:25:04;49921.47;;;-146.63;59.85
62462;BME280;48511;38.664;-9.202;2023-02-20T09:27:06;49929.38;;;-146.63;59.47
62462;BME280;48511;38.664;-9.202;2023-02-20T09:29:08;49921.47;;;-146.63;59.52
62462;BME280;48511;38.664;-9.202;2023-02-20T09:31:08;49889.91;;;-146.63;59.50
62462;BME280;48511;38.664;-9.202;2023-02-20T09:33:09;49921.47;;;-146.63;59.52
62462;BME280;48511;38.664;-9.202;2023-02-20T09:35:15;49891.88;;;-146.63;58.05
62462;BME280;48511;38.664;-9.202;2023-02-20T09:37:16;49933.31;;;-146.63;57.95
62462;BME280;48511;38.664;-9.202;2023-02-20T09:39:17;49943.19;;;-146.63;57.43
62462;BME280;48511;38.664;-9.202;2023-02-20T09:46:12;49901.75;;;-146.63;56.05
62462;BME280;48511;38.664;-9.202;2023-02-20T09:48:18;49870.16;;;-146.63;55.70
62462;BME280;48511;38.664;-9.202;2023-02-20T09:52:40;49870.16;;;-146.63;55.19
62462;BME280;48511;38.664;-9.202;2023-02-20T09:54:48;49913.59;;;-146.63;54.95
62462;BME280;48511;38.664;-9.202;2023-02-20T09:56:54;49937.25;;;-146.63;55.10
62462;BME280;48511;38.664;-9.202;2023-02-20T09:59:16;49889.91;;;-146.63;54.86
62462;BME280;48511;38.664;-9.202;2023-02-20T10:01:20;49911.59;;;-146.63;55.19
62462;BME280;48511;38.664;-9.202;2023-02-20T10:03:35;49874.09;;;-146.63;55.17
62462;BME280;48511;38.664;-9.202;2023-02-20T10:05:41;49913.59;;;-146.63;55.34
62462;BME280;48511;38.664;-9.202;2023-02-20T10:07:44;49941.22;;;-146.63;55.32
62462;BME280;48511;38.664;-9.202;2023-02-20T10:09:46;49929.38;;;-146.63;55.81
62462;BME280;48511;38.664;-9.202;2023-02-20T10:16:31;49882.00;;;-146.63;56.32
62462;BME280;48511;38.664;-9.202;2023-02-20T10:21:06;49901.75;;;-146.63;55.99
62462;BME280;48511;38.664;-9.202;2023-02-20T10:23:42;49953.06;;;-146.63;55.65
62462;BME280;48511;38.664;-9.202;2023-02-20T10:25:43;49921.47;;;-146.63;54.85
62462;BME280;48511;38.664;-9.202;2023-02-20T10:28:13;49939.25;;;-146.63;54.13
62462;BME280;48511;38.664;-9.202;2023-02-20T10:30:24;49909.63;;;-146.63;53.62
62462;BME280;48511;38.664;-9.202;2023-02-20T10:32:37;49889.91;;;-146.63;52.91
62462;BME280;48511;38.664;-9.202;2023-02-20T10:34:56;49915.56;;;-146.63;52.25
62462;BME280;48511;38.664;-9.202;2023-02-20T10:37:09;49937.25;;;-146.63;52.16
62462;BME280;48511;38.664;-9.202;2023-02-20T10:39:14;49887.91;;;-146.63;52.16
62462;BME280;48511;38.664;-9.202;2023-02-20T10:41:56;49897.78;;;-146.63;51.86
62462;BME280;48511;38.664;-9.202;2023-02-20T10:46:43;49913.59;;;-146.63;52.42
62462;BME280;48511;38.664;-9.202;2023-02-20T10:48:46;49909.63;;;-146.63;52.80
62462;BME280;48511;38.664;-9.202;2023-02-20T10:53:18;49876.09;;;-146.63;52.29
62462;BME280;48511;38.664;-9.202;2023-02-20T10:57:48;49905.69;;;-146.63;51.95
62462;BME280;48511;38.664;-9.202;2023-02-20T10:59:55;49901.75;;;-146.63;51.25
62462;BME280;48511;38.664;-9.202;2023-02-20T11:02:01;49887.91;;;-146.63;50.85
62462;BME280;48511;38.664;-9.202;2023-02-20T11:04:49;49897.78;;;-146.63;49.81
62462;BME280;48511;38.664;-9.202;2023-02-20T11:06:29;49885.94;;;-146.63;50.20
62462;BME280;48511;38.664;-9.202;2023-02-20T11:08:30;49913.59;;;-146.63;49.32
62462;BME280;48511;38.664;-9.202;2023-02-20T11:10:31;49921.47;;;-146.63;49.33
62462;BME280;48511;38.664;-9.202;2023-02-20T11:12:45;49925.41;;;-146.63;49.17
62462;BME280;48511;38.664;-9.202;2023-02-20T11:14:49;49878.06;;;-146.63;48.86
62462;BME280;48511;38.664;-9.202;2023-02-20T11:17:12;49901.75;;;-146.63;49.06
62462;BME280;48511;38.664;-9.202;2023-02-20T11:19:22;49895.81;;;-146.63;48.94